Time;durP1;ratioP1;P1;durP2;ratioP2;P2;SDS_P1;SDS_P2;PMS_P1;PMS_P2;Temp;Humidity;BMP_temperature;BMP_pressure;BME280_temperature;BME280_humidity;BME280_pressure;Samples;Min_cycle;Max_cycle;Signal;HPM_P1;HPM_P2
2022/08/16 00:01:17;;;;;;;18.40;16.67;;;20.90;99.90;;;;;;6337377;22;20015;-78
2022/08/16 00:03:43;;;;;;;18.30;16.60;;;20.90;99.90;;;;;;6338852;22;20053;-79
2022/08/16 00:06:09;;;;;;;18.60;16.67;;;20.90;99.90;;;;;;6338430;22;20006;-78
2022/08/16 00:08:35;;;;;;;21.13;17.15;;;20.90;99.90;;;;;;6337493;22;20143;-78
2022/08/16 00:11:01;;;;;;;19.08;17.23;;;20.90;99.90;;;;;;6338642;22;20006;-78
2022/08/16 00:13:28;;;;;;;19.85;18.00;;;20.80;99.90;;;;;;6337977;22;20006;-78
2022/08/16 00:15:54;;;;;;;19.95;18.00;;;20.80;99.90;;;;;;6337870;22;20419;-78
2022/08/16 00:18:20;;;;;;;19.90;17.92;;;20.80;99.90;;;;;;6338168;22;19998;-78
2022/08/16 00:20:47;;;;;;;21.65;18.25;;;20.80;99.90;;;;;;6338378;22;20010;-77
2022/08/16 00:23:13;;;;;;;23.08;18.88;;;20.80;99.90;;;;;;6337441;22;20072;-77
2022/08/16 00:25:39;;;;;;;20.55;18.48;;;20.70;99.90;;;;;;6337917;22;20022;-78
2022/08/16 00:28:05;;;;;;;21.33;18.65;;;20.80;99.90;;;;;;6338173;22;20062;-77
2022/08/16 00:30:31;;;;;;;20.65;18.65;;;20.70;99.90;;;;;;6337107;22;20010;-77
2022/08/16 00:32:58;;;;;;;19.92;18.17;;;20.70;99.90;;;;;;6338228;22;19995;-77
2022/08/16 00:35:29;;;;;;;20.98;18.73;;;20.60;99.90;;;;;;6338385;22;20014;-78
2022/08/16 00:37:55;;;;;;;20.20;18.25;;;20.70;99.90;;;;;;6337586;22;19999;-77
2022/08/16 00:40:35;;;;;;;24.23;19.98;;;20.60;99.90;;;;;;6338449;22;20014;-77
2022/08/16 00:43:05;;;;;;;20.83;18.88;;;20.60;99.90;;;;;;6340517;22;20457;-77
2022/08/16 00:45:57;;;;;;;22.33;19.95;;;20.60;99.90;;;;;;6361183;22;20009;-76
2022/08/16 00:48:22;;;;;;;22.17;19.23;;;20.60;99.90;;;;;;6297489;22;20007;-77
2022/08/16 00:50:48;;;;;;;21.63;19.38;;;20.60;99.90;;;;;;6340311;22;20010;-77
2022/08/16 00:53:15;;;;;;;24.38;19.83;;;20.50;99.90;;;;;;6343489;22;20488;-77
2022/08/16 00:55:47;;;;;;;22.63;20.40;;;20.50;99.90;;;;;;6359344;22;20333;-78
2022/08/16 00:58:15;;;;;;;21.48;19.33;;;20.50;99.90;;;;;;6338954;22;20006;-78
2022/08/16 01:00:41;;;;;;;21.73;19.65;;;20.50;99.90;;;;;;6355632;22;20037;-78
2022/08/16 01:03:10;;;;;;;20.55;18.67;;;20.50;99.90;;;;;;6352814;22;19999;-79
2022/08/16 01:05:37;;;;;;;20.48;18.38;;;20.40;99.90;;;;;;6340674;22;20014;-78
2022/08/16 01:08:06;;;;;;;22.50;19.45;;;20.40;99.90;;;;;;6340267;22;19998;-78
2022/08/16 01:10:33;;;;;;;22.20;19.93;;;20.50;99.90;;;;;;6339858;22;20390;-79
2022/08/16 01:13:11;;;;;;;20.80;18.75;;;20.40;99.90;;;;;;6339224;22;20007;-78
2022/08/16 01:15:40;;;;;;;21.25;18.95;;;20.40;99.90;;;;;;6340889;22;20060;-77
2022/08/16 01:18:08;;;;;;;21.17;19.00;;;20.40;99.90;;;;;;6340238;22;20001;-77
2022/08/16 01:20:41;;;;;;;21.23;19.33;;;20.40;99.90;;;;;;6340378;22;20010;-78
2022/08/16 01:23:19;;;;;;;21.95;18.52;;;20.40;99.90;;;;;;6339994;22;20330;-79
2022/08/16 01:25:48;;;;;;;20.58;18.48;;;20.30;99.90;;;;;;6338731;22;20014;-77
2022/08/16 01:28:16;;;;;;;20.17;17.95;;;20.30;99.90;;;;;;6311283;22;20026;-78
2022/08/16 01:30:49;;;;;;;20.95;18.70;;;20.30;99.90;;;;;;6339611;22;20038;-78
2022/08/16 01:33:15;;;;;;;20.85;17.70;;;20.30;99.90;;;;;;6338289;22;20018;-78
2022/08/16 01:35:50;;;;;;;19.58;17.67;;;20.30;99.90;;;;;;6339509;22;20025;-78
2022/08/16 01:38:21;;;;;;;19.15;17.15;;;20.30;99.90;;;;;;6339330;22;20086;-78
2022/08/16 01:40:49;;;;;;;22.65;19.13;;;20.30;99.90;;;;;;6338380;22;20066;-78
2022/08/16 01:43:15;;;;;;;21.33;19.27;;;20.20;99.90;;;;;;6338801;22;20007;-77
2022/08/16 01:45:40;;;;;;;19.73;17.83;;;20.20;99.90;;;;;;6339787;22;20070;-79
2022/08/16 01:48:07;;;;;;;21.05;18.98;;;20.10;99.90;;;;;;6338728;22;20450;-78
2022/08/16 01:50:33;;;;;;;20.95;18.05;;;20.10;99.90;;;;;;6339332;22;19999;-78
2022/08/16 01:52:58;;;;;;;20.05;18.15;;;20.10;99.90;;;;;;6338471;22;20003;-79
2022/08/16 01:55:24;;;;;;;20.95;18.85;;;20.10;99.90;;;;;;6338337;22;20048;-78
2022/08/16 01:57:50;;;;;;;19.67;17.58;;;20.10;99.90;;;;;;6339050;22;20511;-78
2022/08/16 02:00:17;;;;;;;19.17;17.35;;;20.10;99.90;;;;;;6338025;22;20053;-78
2022/08/16 02:02:43;;;;;;;20.30;18.45;;;20.10;99.90;;;;;;6339261;22;20006;-77
2022/08/16 02:05:09;;;;;;;19.90;17.90;;;20.00;99.90;;;;;;6339039;22;20003;-78
2022/08/16 02:07:35;;;;;;;18.77;16.92;;;20.00;99.90;;;;;;6338676;22;19999;-79
2022/08/16 02:10:02;;;;;;;18.58;16.67;;;20.00;99.90;;;;;;6339013;22;20084;-78
2022/08/16 02:12:30;;;;;;;20.63;18.55;;;20.00;99.90;;;;;;6338698;22;20331;-79
2022/08/16 02:14:55;;;;;;;19.40;17.45;;;20.00;99.90;;;;;;6338248;22;20014;-78
2022/08/16 02:17:21;;;;;;;21.08;18.20;;;20.00;99.90;;;;;;6338753;22;20094;-78
2022/08/16 02:19:48;;;;;;;20.35;17.75;;;20.00;99.90;;;;;;6339232;22;20006;-78
2022/08/16 02:22:18;;;;;;;19.77;17.98;;;20.00;99.90;;;;;;6338100;22;20035;-78
2022/08/16 02:24:44;;;;;;;;;;;19.90;99.90;;;;;;6339737;22;20021;-79
2022/08/16 02:27:10;;;;;;;19.63;17.58;;;19.90;99.90;;;;;;6340019;22;19903;-79
2022/08/16 02:29:37;;;;;;;18.85;16.73;;;19.90;99.90;;;;;;6340242;22;20389;-78
2022/08/16 02:32:03;;;;;;;19.35;17.38;;;19.90;99.90;;;;;;6340010;22;20029;-79
2022/08/16 02:34:29;;;;;;;18.45;16.50;;;19.90;99.90;;;;;;6339616;22;20003;-78
2022/08/16 02:36:55;;;;;;;19.67;17.75;;;19.80;99.90;;;;;;6341861;22;20010;-78
2022/08/16 02:39:21;;;;;;;20.02;17.92;;;19.80;99.90;;;;;;6345214;22;19995;-79
2022/08/16 02:41:49;;;;;;;20.83;17.00;;;19.90;99.90;;;;;;6345030;22;20368;-78
2022/08/16 02:44:15;;;;;;;19.42;17.58;;;19.80;99.90;;;;;;6342650;22;19999;-77
2022/08/16 02:46:41;;;;;;;19.83;17.90;;;19.70;99.90;;;;;;6343550;22;20052;-78
2022/08/16 02:49:07;;;;;;;19.75;17.95;;;19.80;99.90;;;;;;6344421;22;19999;-79
2022/08/16 02:51:34;;;;;;;19.52;17.63;;;19.80;99.90;;;;;;6343543;22;20074;-78
2022/08/16 02:53:59;;;;;;;25.75;20.58;;;19.80;99.90;;;;;;6342688;22;20011;-78
2022/08/16 02:56:25;;;;;;;19.35;17.35;;;19.80;99.90;;;;;;6338578;22;20010;-77
2022/08/16 02:58:52;;;;;;;20.52;18.42;;;19.80;99.90;;;;;;6355223;22;20009;-77
2022/08/16 03:01:24;;;;;;;20.27;18.20;;;19.70;99.90;;;;;;6347851;22;20011;-79
2022/08/16 03:03:53;;;;;;;18.90;17.30;;;19.70;99.90;;;;;;6338617;22;20006;-79
2022/08/16 03:06:21;;;;;;;29.23;20.80;;;19.70;99.90;;;;;;6338812;22;20072;-79
2022/08/16 03:08:48;;;;;;;20.38;18.17;;;19.70;99.90;;;;;;6346628;22;19995;-78
2022/08/16 03:11:17;;;;;;;22.77;20.38;;;19.70;99.90;;;;;;6346678;22;20426;-79
2022/08/16 03:13:46;;;;;;;22.48;20.15;;;19.70;99.90;;;;;;6341938;22;19995;-78
2022/08/16 03:16:12;;;;;;;24.58;22.08;;;19.70;99.90;;;;;;6355846;22;20013;-77
2022/08/16 03:18:40;;;;;;;27.30;21.85;;;19.70;99.90;;;;;;6351916;22;19995;-78
2022/08/16 03:21:06;;;;;;;24.48;21.45;;;19.80;99.90;;;;;;6338939;22;20018;-77
2022/08/16 03:23:31;;;;;;;25.42;21.65;;;19.70;99.90;;;;;;6338879;22;20034;-77
2022/08/16 03:25:58;;;;;;;24.92;22.17;;;19.70;99.90;;;;;;6338397;22;20056;-78
2022/08/16 03:28:23;;;;;;;24.30;21.58;;;19.70;99.90;;;;;;6338865;22;19995;-78
2022/08/16 03:30:49;;;;;;;27.35;22.38;;;19.60;99.90;;;;;;6338930;22;20041;-78
2022/08/16 03:33:15;;;;;;;24.13;21.63;;;19.60;99.90;;;;;;6337761;22;20059;-78
2022/08/16 03:35:41;;;;;;;25.45;22.85;;;19.60;99.90;;;;;;6339028;22;20006;-78
2022/08/16 03:38:09;;;;;;;30.67;23.83;;;19.60;99.90;;;;;;6340095;22;19995;-78
2022/08/16 03:40:36;;;;;;;27.85;23.15;;;19.60;99.90;;;;;;6337700;22;20342;-78
2022/08/16 03:43:05;;;;;;;27.63;23.05;;;19.60;99.90;;;;;;6338385;22;19995;-79
2022/08/16 03:45:35;;;;;;;31.75;24.48;;;19.60;99.90;;;;;;6338053;22;20060;-78
2022/08/16 03:48:01;;;;;;;30.70;23.67;;;19.60;99.90;;;;;;6338071;22;19999;-79
2022/08/16 03:50:28;;;;;;;25.33;22.70;;;19.60;99.90;;;;;;6309823;22;20031;-80
2022/08/16 03:52:54;;;;;;;32.30;26.20;;;19.60;99.90;;;;;;6337592;22;20010;-79
2022/08/16 03:55:20;;;;;;;27.70;24.73;;;19.50;99.90;;;;;;6337979;22;19998;-79
2022/08/16 03:57:47;;;;;;;29.80;26.48;;;19.50;99.90;;;;;;6338445;22;20331;-79
2022/08/16 04:00:16;;;;;;;31.42;28.00;;;19.50;99.90;;;;;;6337015;22;20007;-79
2022/08/16 04:02:43;;;;;;;32.20;27.50;;;19.50;99.90;;;;;;6338351;22;20071;-79
2022/08/16 04:05:11;;;;;;;34.47;27.83;;;19.50;99.90;;;;;;6338267;22;20233;-78
2022/08/16 04:07:37;;;;;;;29.67;26.42;;;19.50;99.90;;;;;;6337761;22;20319;-79
2022/08/16 04:10:05;;;;;;;29.63;26.00;;;19.50;99.90;;;;;;6337943;22;20027;-78
2022/08/16 04:12:31;;;;;;;30.65;26.75;;;19.50;99.90;;;;;;6338055;22;20116;-78
2022/08/16 04:14:57;;;;;;;35.10;28.40;;;19.40;99.90;;;;;;6337182;22;20041;-80
2022/08/16 04:17:23;;;;;;;33.08;28.77;;;19.50;99.90;;;;;;6337375;22;20331;-78
2022/08/16 04:19:49;;;;;;;38.78;28.33;;;19.40;99.90;;;;;;6338291;22;20031;-79
2022/08/16 04:22:15;;;;;;;33.50;27.73;;;19.40;99.90;;;;;;6336711;22;20002;-78
2022/08/16 04:24:40;;;;;;;32.80;27.92;;;19.40;99.90;;;;;;6337798;22;20071;-78
2022/08/16 04:27:06;;;;;;;30.95;27.02;;;19.40;99.90;;;;;;6338155;22;20407;-78
2022/08/16 04:29:32;;;;;;;33.75;28.67;;;19.40;99.90;;;;;;6336765;22;19998;-78
2022/08/16 04:31:58;;;;;;;32.75;28.23;;;19.30;99.90;;;;;;6338330;22;20030;-78
2022/08/16 04:34:27;;;;;;;35.72;28.75;;;19.30;99.90;;;;;;6337970;22;20356;-78
2022/08/16 04:36:53;;;;;;;35.97;27.60;;;19.30;99.90;;;;;;6337485;22;20010;-78
2022/08/16 04:39:19;;;;;;;33.67;29.55;;;19.30;99.90;;;;;;6337562;22;19995;-78
2022/08/16 04:41:45;;;;;;;37.33;29.38;;;19.30;99.90;;;;;;6338071;22;20011;-78
2022/08/16 04:44:12;;;;;;;34.22;28.55;;;19.30;99.90;;;;;;6337158;22;20130;-78
2022/08/16 04:46:37;;;;;;;35.70;28.88;;;19.20;99.90;;;;;;6338569;22;20078;-78
2022/08/16 04:49:06;;;;;;;34.55;28.15;;;19.30;99.90;;;;;;6337574;22;20074;-79
2022/08/16 04:51:32;;;;;;;37.90;30.63;;;19.30;99.90;;;;;;6337986;22;20022;-78
2022/08/16 04:53:58;;;;;;;36.70;32.72;;;19.30;99.90;;;;;;6337783;22;20415;-79
2022/08/16 04:56:24;;;;;;;38.65;32.90;;;19.30;99.90;;;;;;6336592;22;20086;-78
2022/08/16 04:58:49;;;;;;;34.97;30.80;;;19.30;99.90;;;;;;6338785;22;19999;-78
2022/08/16 05:01:16;;;;;;;37.78;31.25;;;19.30;99.90;;;;;;6338141;22;20018;-78
2022/08/16 05:03:42;;;;;;;39.58;32.20;;;19.40;99.90;;;;;;6337416;22;20100;-78
2022/08/16 05:06:08;;;;;;;34.60;31.00;;;19.40;99.90;;;;;;6338314;22;20010;-78
2022/08/16 05:08:34;;;;;;;34.85;31.15;;;19.50;99.90;;;;;;6338033;22;20458;-78
2022/08/16 05:11:03;;;;;;;35.35;30.77;;;19.50;99.90;;;;;;6335729;22;20068;-78
2022/08/16 05:13:29;;;;;;;39.20;30.67;;;19.60;99.90;;;;;;6359837;22;20420;-77
2022/08/16 05:15:54;;;;;;;37.97;30.20;;;19.60;99.90;;;;;;6343688;22;20010;-77
2022/08/16 05:18:20;;;;;;;34.95;29.90;;;19.70;99.90;;;;;;6337396;22;20062;-77
2022/08/16 05:20:45;;;;;;;32.33;28.15;;;19.60;99.90;;;;;;6337896;22;20331;-78
2022/08/16 05:23:11;;;;;;;34.25;29.40;;;19.60;99.90;;;;;;6342706;22;19999;-77
2022/08/16 05:25:37;;;;;;;36.45;30.27;;;19.60;99.90;;;;;;6352378;22;20011;-77
2022/08/16 05:28:03;;;;;;;31.88;28.58;;;19.60;99.90;;;;;;6351196;22;20018;-76
2022/08/16 05:30:28;;;;;;;33.90;28.05;;;19.60;99.90;;;;;;6360141;22;20022;-77
2022/08/16 05:32:54;;;;;;;37.58;28.75;;;19.60;99.90;;;;;;6341676;22;20388;-78
2022/08/16 05:35:20;;;;;;;32.90;28.45;;;19.70;99.90;;;;;;6340374;22;20511;-78
2022/08/16 05:37:45;;;;;;;34.22;28.45;;;19.70;99.90;;;;;;6340397;22;20055;-78
2022/08/16 05:40:12;;;;;;;30.65;27.20;;;19.70;99.90;;;;;;6338689;22;20007;-78
2022/08/16 05:42:38;;;;;;;36.05;28.30;;;19.80;99.90;;;;;;6339442;22;20003;-77
2022/08/16 05:45:08;;;;;;;34.83;28.02;;;19.80;99.90;;;;;;6339995;22;20069;-78
2022/08/16 05:47:34;;;;;;;39.10;29.98;;;19.80;99.90;;;;;;6339444;22;20074;-78
2022/08/16 05:49:59;;;;;;;46.28;29.63;;;19.90;99.90;;;;;;6339317;22;20022;-78
2022/08/16 05:52:25;;;;;;;35.97;30.70;;;19.90;99.90;;;;;;6338124;22;20006;-79
2022/08/16 05:54:50;;;;;;;40.38;31.02;;;20.10;99.90;;;;;;6339315;22;20081;-79
2022/08/16 05:57:17;;;;;;;34.22;30.33;;;20.10;99.90;;;;;;6339105;22;20026;-79
2022/08/16 05:59:46;;;;;;;78.40;36.42;;;20.10;99.90;;;;;;6338538;22;20007;-79
2022/08/16 06:02:12;;;;;;;47.10;30.13;;;20.20;99.90;;;;;;6339384;22;20070;-78
2022/08/16 06:04:41;;;;;;;59.63;29.55;;;20.20;99.90;;;;;;6339090;22;20003;-78
2022/08/16 06:07:07;;;;;;;34.22;27.38;;;20.30;99.90;;;;;;6336580;22;20066;-79
2022/08/16 06:09:33;;;;;;;29.90;26.73;;;20.30;99.90;;;;;;6338273;22;20003;-78
2022/08/16 06:12:00;;;;;;;37.35;28.52;;;20.40;99.90;;;;;;6338330;22;19999;-77
2022/08/16 06:14:27;;;;;;;32.58;26.35;;;20.50;99.90;;;;;;6337559;22;20014;-79
2022/08/16 06:16:52;;;;;;;39.83;28.38;;;20.50;99.90;;;;;;6338561;22;20028;-79
2022/08/16 06:19:18;;;;;;;30.02;26.92;;;20.60;99.90;;;;;;6337604;22;20007;-80
2022/08/16 06:21:48;;;;;;;37.60;29.80;;;20.60;99.90;;;;;;6337951;22;20017;-80
2022/08/16 06:24:14;;;;;;;42.72;31.38;;;20.80;99.90;;;;;;6338137;22;20021;-79
2022/08/16 06:26:40;;;;;;;32.63;27.80;;;20.90;99.90;;;;;;6339717;22;20070;-78
2022/08/16 06:29:06;;;;;;;31.23;27.05;;;20.90;99.90;;;;;;6337905;22;20569;-79
2022/08/16 06:31:31;;;;;;;38.45;28.77;;;21.00;99.90;;;;;;6338976;22;20407;-80
2022/08/16 06:33:58;;;;;;;33.80;27.00;;;21.00;99.90;;;;;;6339301;22;20034;-78
2022/08/16 06:36:23;;;;;;;41.10;31.58;;;21.10;99.90;;;;;;6337492;22;20006;-79
2022/08/16 06:38:52;;;;;;;32.97;28.75;;;21.10;99.90;;;;;;6339341;22;20003;-79
2022/08/16 06:41:17;;;;;;;39.17;30.20;;;21.20;99.90;;;;;;6338636;22;20091;-79
2022/08/16 06:43:43;;;;;;;37.05;30.10;;;21.30;99.90;;;;;;6338089;22;20431;-78
2022/08/16 06:46:25;;;;;;;37.30;33.17;;;21.30;99.90;;;;;;6337888;22;20007;-79
2022/08/16 06:48:51;;;;;;;37.67;33.55;;;21.50;99.90;;;;;;6338062;22;20047;-79
2022/08/16 06:51:17;;;;;;;37.55;32.35;;;21.50;99.90;;;;;;6337801;22;20077;-80
2022/08/16 06:53:42;;;;;;;42.25;32.88;;;21.50;99.90;;;;;;6338731;22;19999;-80
2022/08/16 06:56:08;;;;;;;46.58;34.08;;;21.60;99.90;;;;;;6337743;22;20005;-79
2022/08/16 06:58:34;;;;;;;42.20;32.70;;;21.50;99.90;;;;;;6339402;22;19998;-79
2022/08/16 07:01:01;;;;;;;37.13;32.25;;;21.60;99.90;;;;;;6338739;22;20056;-79
2022/08/16 07:03:28;;;;;;;39.85;31.88;;;21.60;99.90;;;;;;6337328;22;20014;-80
2022/08/16 07:05:55;;;;;;;46.80;36.67;;;21.70;99.90;;;;;;6338244;22;20003;-78
2022/08/16 07:08:22;;;;;;;46.08;32.35;;;21.70;99.90;;;;;;6338277;22;19999;-79
2022/08/16 07:10:48;;;;;;;43.92;33.05;;;21.80;99.90;;;;;;6336948;22;20493;-79
2022/08/16 07:13:14;;;;;;;51.92;38.58;;;21.80;99.90;;;;;;6337819;22;20027;-79
2022/08/16 07:15:41;;;;;;;38.85;33.22;;;22.00;99.90;;;;;;6338033;22;20002;-78
2022/08/16 07:18:06;;;;;;;50.22;32.78;;;22.00;99.90;;;;;;6337546;22;20070;-77
2022/08/16 07:20:32;;;;;;;42.78;33.78;;;22.00;99.90;;;;;;6338228;22;20053;-79
2022/08/16 07:22:58;;;;;;;41.50;34.67;;;22.00;99.90;;;;;;6339216;22;19999;-78
2022/08/16 07:25:24;;;;;;;44.63;32.78;;;22.10;99.90;;;;;;6341153;22;20018;-77
2022/08/16 07:27:50;;;;;;;40.63;33.88;;;22.10;99.90;;;;;;6357080;22;20059;-78
2022/08/16 07:30:17;;;;;;;45.90;34.17;;;22.20;99.90;;;;;;6353264;22;20007;-78
2022/08/16 07:32:43;;;;;;;51.40;33.65;;;22.20;99.90;;;;;;6347693;22;20453;-78
2022/08/16 07:35:08;;;;;;;39.47;33.47;;;22.20;99.90;;;;;;6352478;22;19995;-77
2022/08/16 07:37:34;;;;;;;40.17;32.85;;;22.20;99.90;;;;;;6346996;22;20098;-78
2022/08/16 07:40:01;;;;;;;40.08;32.00;;;22.30;99.90;;;;;;6344949;22;20060;-79
2022/08/16 07:42:26;;;;;;;43.42;34.13;;;22.30;99.90;;;;;;6350857;22;20038;-77
2022/08/16 07:44:52;;;;;;;41.15;33.17;;;22.30;99.90;;;;;;6348447;22;20007;-77
2022/08/16 07:47:19;;;;;;;33.42;29.77;;;22.40;99.90;;;;;;6347903;22;20037;-78
2022/08/16 07:49:44;;;;;;;36.72;29.73;;;22.40;99.90;;;;;;6345011;22;20044;-77
2022/08/16 07:52:10;;;;;;;40.72;33.22;;;22.50;99.90;;;;;;6350976;22;20007;-84
2022/08/16 07:54:35;;;;;;;42.40;34.03;;;22.50;99.90;;;;;;6344644;22;20029;-83
2022/08/16 07:57:01;;;;;;;40.83;33.38;;;22.60;99.90;;;;;;6341199;22;20003;-79
2022/08/16 07:59:26;;;;;;;38.38;30.33;;;22.60;99.90;;;;;;6338706;22;20053;-80
2022/08/16 08:01:53;;;;;;;44.28;33.33;;;22.70;99.90;;;;;;6339421;22;20030;-78
2022/08/16 08:04:19;;;;;;;45.45;31.33;;;22.70;99.90;;;;;;6338054;22;20003;-78
2022/08/16 08:06:47;;;;;;;48.30;34.70;;;22.70;99.90;;;;;;6334264;22;20123;-80
2022/08/16 08:09:13;;;;;;;35.72;31.08;;;22.80;99.90;;;;;;6336731;22;20034;-79
2022/08/16 08:11:39;;;;;;;41.60;31.90;;;22.80;99.90;;;;;;6336867;22;19999;-79
2022/08/16 08:14:04;;;;;;;52.45;38.05;;;23.00;99.90;;;;;;6337714;22;20003;-79
2022/08/16 08:16:32;;;;;;;38.47;31.40;;;23.00;99.90;;;;;;6338255;22;20319;-80
2022/08/16 08:18:59;;;;;;;45.75;36.08;;;23.00;99.90;;;;;;6338795;22;20003;-81
2022/08/16 08:21:25;;;;;;;39.97;32.03;;;23.10;99.90;;;;;;6335013;22;20018;-78
2022/08/16 08:23:51;;;;;;;41.55;33.65;;;23.00;99.90;;;;;;6336063;22;20003;-79
2022/08/16 08:26:18;;;;;;;36.83;30.02;;;23.00;99.90;;;;;;6337960;22;20327;-79
2022/08/16 08:28:44;;;;;;;44.10;34.55;;;23.10;99.90;;;;;;6337726;22;19995;-79
2022/08/16 08:31:10;;;;;;;34.92;29.98;;;23.20;99.90;;;;;;6338470;22;20065;-80
2022/08/16 08:33:36;;;;;;;31.95;27.67;;;23.10;99.90;;;;;;6338288;22;20042;-81
2022/08/16 08:36:06;;;;;;;36.50;31.23;;;23.20;99.90;;;;;;6337483;22;19998;-80
2022/08/16 08:38:33;;;;;;;35.65;29.88;;;23.30;99.90;;;;;;6337561;22;20051;-79
2022/08/16 08:40:59;;;;;;;35.20;31.42;;;23.30;99.90;;;;;;6337655;22;20033;-79
2022/08/16 08:43:25;;;;;;;39.03;30.92;;;23.40;99.90;;;;;;6337610;22;20419;-78
2022/08/16 08:45:54;;;;;;;31.63;27.17;;;23.50;99.90;;;;;;6337838;22;19999;-79
2022/08/16 08:48:20;;;;;;;41.03;30.35;;;23.50;99.90;;;;;;6337221;22;20411;-79
2022/08/16 08:50:46;;;;;;;39.50;32.70;;;23.60;99.90;;;;;;6339001;22;20011;-79
2022/08/16 08:53:12;;;;;;;40.10;31.70;;;23.70;99.90;;;;;;6338049;22;20480;-80
2022/08/16 08:55:38;;;;;;;47.83;33.53;;;23.60;99.90;;;;;;6337487;22;20010;-81
2022/08/16 08:58:03;;;;;;;34.33;30.63;;;23.90;99.90;;;;;;6338212;22;19995;-79
2022/08/16 09:00:29;;;;;;;39.30;33.63;;;23.80;99.90;;;;;;6338145;22;20018;-80
2022/08/16 09:02:56;;;;;;;39.85;35.58;;;23.90;99.90;;;;;;6339456;22;20136;-79
2022/08/16 09:05:25;;;;;;;40.92;33.35;;;24.00;99.90;;;;;;6339842;22;20003;-79
2022/08/16 09:07:51;;;;;;;40.03;32.00;;;24.00;99.90;;;;;;6339844;22;20365;-79
2022/08/16 09:10:17;;;;;;;33.20;29.60;;;24.10;99.90;;;;;;6341232;22;20033;-78
2022/08/16 09:12:46;;;;;;;38.65;30.75;;;24.10;99.90;;;;;;6337611;22;20002;-79
2022/08/16 09:15:13;;;;;;;35.22;29.10;;;24.30;99.90;;;;;;6338915;22;20056;-80
2022/08/16 09:17:39;;;;;;;42.05;31.70;;;24.30;99.90;;;;;;6338258;22;19999;-80
2022/08/16 09:20:06;;;;;;;34.20;30.55;;;24.40;99.90;;;;;;6337800;22;20026;-80
2022/08/16 09:22:33;;;;;;;41.35;31.90;;;24.50;99.90;;;;;;6338012;22;19995;-80
2022/08/16 09:24:58;;;;;;;34.20;30.38;;;24.60;99.90;;;;;;6336625;22;20341;-79
2022/08/16 09:27:25;;;;;;;36.58;29.77;;;24.50;99.90;;;;;;6337126;22;19999;-79
2022/08/16 09:29:51;;;;;;;36.47;29.05;;;24.60;99.90;;;;;;6338360;22;20022;-78
2022/08/16 09:32:17;;;;;;;43.55;34.40;;;24.60;99.90;;;;;;6337876;22;20037;-81
2022/08/16 09:34:43;;;;;;;34.30;29.60;;;24.70;99.90;;;;;;6343231;22;19995;-79
2022/08/16 09:37:09;;;;;;;35.33;28.17;;;24.80;99.90;;;;;;6343671;22;20300;-75
2022/08/16 09:39:35;;;;;;;35.55;30.23;;;24.80;99.90;;;;;;6348471;22;20001;-79
2022/08/16 09:42:01;;;;;;;42.08;32.85;;;24.90;99.90;;;;;;6355026;22;20003;-78
2022/08/16 09:44:27;;;;;;;34.70;30.10;;;24.90;99.90;;;;;;6345492;22;20064;-78
2022/08/16 09:46:54;;;;;;;36.78;30.17;;;24.80;99.90;;;;;;6338466;22;20426;-78
2022/08/16 09:49:21;;;;;;;31.35;27.88;;;24.90;99.90;;;;;;6347281;22;20051;-79
2022/08/16 09:51:52;;;;;;;32.38;26.35;;;25.00;99.90;;;;;;6348173;22;20010;-79
2022/08/16 09:54:18;;;;;;;34.45;27.30;;;25.10;99.90;;;;;;6342554;22;19998;-78
2022/08/16 09:56:44;;;;;;;27.08;22.33;;;25.20;99.90;;;;;;6323525;22;20027;-80
2022/08/16 09:59:10;;;;;;;25.55;22.52;;;25.30;99.90;;;;;;6339164;22;20083;-79
2022/08/16 10:01:37;;;;;;;27.27;24.35;;;25.40;99.90;;;;;;6340111;22;20373;-79
2022/08/16 10:04:04;;;;;;;23.67;21.02;;;25.60;99.90;;;;;;6339213;22;20013;-79
2022/08/16 10:06:30;;;;;;;34.03;26.40;;;25.80;99.90;;;;;;6337791;22;20431;-80
2022/08/16 10:08:56;;;;;;;29.95;26.70;;;26.00;99.90;;;;;;6336866;22;19999;-77
2022/08/16 10:14:06;;;;;;;28.33;22.40;;;26.30;99.90;;;;;;6337896;22;20014;-79
2022/08/16 10:16:32;;;;;;;18.73;16.92;;;26.50;99.90;;;;;;6338873;22;20007;-78
2022/08/16 10:18:57;;;;;;;25.65;20.90;;;26.80;99.90;;;;;;6339109;22;20034;-79
2022/08/16 10:21:23;;;;;;;27.25;23.58;;;27.00;99.90;;;;;;6337782;22;20007;-77
2022/08/16 10:23:50;;;;;;;26.02;23.40;;;27.10;99.70;;;;;;6338783;22;20267;-77
2022/08/16 10:26:16;;;;;;;27.33;24.40;;;27.10;99.50;;;;;;6339121;22;20013;-81
2022/08/16 10:28:42;;;;;;;20.77;17.08;;;27.10;99.40;;;;;;6337774;22;20394;-78
2022/08/16 10:31:09;;;;;;;31.40;24.38;;;27.20;99.90;;;;;;6338462;22;19999;-78
2022/08/16 10:33:35;;;;;;;25.88;22.73;;;27.30;99.20;;;;;;6338611;22;20006;-80
2022/08/16 10:36:04;;;;;;;21.27;18.10;;;27.40;98.80;;;;;;6338974;22;20003;-79
2022/08/16 10:38:30;;;;;;;26.75;22.27;;;27.30;98.60;;;;;;6338846;22;20003;-79
2022/08/16 10:40:56;;;;;;;25.75;23.17;;;27.30;98.10;;;;;;6338242;22;20011;-80
2022/08/16 10:43:22;;;;;;;33.47;20.48;;;27.30;98.20;;;;;;6339262;22;20056;-80
2022/08/16 10:45:51;;;;;;;23.95;21.45;;;27.20;97.70;;;;;;6339165;22;20083;-79
2022/08/16 10:48:17;;;;;;;23.08;19.92;;;27.20;98.40;;;;;;6340619;22;20026;-78
2022/08/16 10:50:42;;;;;;;24.70;21.15;;;27.20;98.30;;;;;;6339482;22;20052;-78
2022/08/16 10:53:08;;;;;;;23.15;20.17;;;27.20;98.50;;;;;;6341467;22;20029;-79
2022/08/16 10:55:39;;;;;;;22.73;20.17;;;27.20;98.00;;;;;;6338061;22;20002;-79
2022/08/16 10:58:12;;;;;;;18.75;16.90;;;27.20;98.10;;;;;;6338727;22;20006;-78
2022/08/16 11:00:39;;;;;;;24.05;20.48;;;27.20;98.00;;;;;;6339425;22;20011;-78
2022/08/16 11:03:06;;;;;;;20.83;18.80;;;27.30;98.10;;;;;;6338631;22;20055;-79
2022/08/16 11:05:40;;;;;;;24.65;18.60;;;27.40;98.10;;;;;;6338810;22;20007;-78
2022/08/16 11:08:07;;;;;;;26.13;22.27;;;27.60;97.80;;;;;;6338880;22;20045;-78
2022/08/16 11:10:35;;;;;;;20.08;18.35;;;27.70;97.60;;;;;;6337751;22;19998;-79
2022/08/16 11:13:02;;;;;;;20.77;18.02;;;28.00;97.80;;;;;;6339425;22;20056;-78
2022/08/16 11:15:28;;;;;;;20.85;18.60;;;28.20;97.20;;;;;;6338524;22;20085;-80
2022/08/16 11:17:54;;;;;;;31.95;22.17;;;28.40;96.50;;;;;;6337578;22;19995;-78
2022/08/16 11:20:21;;;;;;;24.50;22.23;;;28.50;96.10;;;;;;6336985;22;20011;-77
2022/08/16 11:22:48;;;;;;;21.05;19.05;;;28.50;95.90;;;;;;6337003;22;20057;-78
2022/08/16 11:25:17;;;;;;;18.52;16.63;;;28.50;96.20;;;;;;6336340;22;20011;-78
2022/08/16 11:27:43;;;;;;;21.92;19.80;;;28.40;96.10;;;;;;6337717;22;20005;-78
2022/08/16 11:30:11;;;;;;;21.42;19.20;;;28.40;95.80;;;;;;6336301;22;20022;-79
2022/08/16 11:32:37;;;;;;;31.00;21.10;;;28.30;95.60;;;;;;6338374;22;20003;-78
2022/08/16 11:35:14;;;;;;;23.10;20.70;;;28.30;95.50;;;;;;6338718;22;20054;-79
2022/08/16 11:37:42;;;;;;;21.05;18.98;;;28.20;95.40;;;;;;6337916;22;20002;-78
2022/08/16 11:40:08;;;;;;;23.17;18.40;;;28.20;95.90;;;;;;6339092;22;20038;-79
2022/08/16 11:42:34;;;;;;;19.15;17.33;;;28.20;95.80;;;;;;6338141;22;20078;-78
2022/08/16 11:44:59;;;;;;;15.90;14.13;;;28.20;95.60;;;;;;6337263;22;20031;-77
2022/08/16 11:47:25;;;;;;;17.45;15.50;;;28.20;95.60;;;;;;6337767;22;20052;-78
2022/08/16 11:49:51;;;;;;;25.20;17.38;;;28.20;95.70;;;;;;6338686;22;20048;-80
2022/08/16 11:52:16;;;;;;;20.20;18.10;;;28.10;95.30;;;;;;6337244;22;20319;-77
2022/08/16 11:54:46;;;;;;;29.27;21.35;;;28.10;95.70;;;;;;6346557;22;20027;-78
2022/08/16 11:57:12;;;;;;;21.77;19.50;;;28.10;95.30;;;;;;6352766;22;20002;-78
2022/08/16 11:59:38;;;;;;;21.55;19.38;;;28.00;95.70;;;;;;6338948;22;19999;-79
2022/08/16 12:02:07;;;;;;;22.77;20.58;;;28.00;95.90;;;;;;6338917;22;20053;-80
2022/08/16 12:04:34;;;;;;;18.73;17.02;;;27.90;96.00;;;;;;6340132;22;20003;-81
2022/08/16 12:07:01;;;;;;;19.73;17.77;;;28.00;95.50;;;;;;6358761;22;20050;-78
2022/08/16 12:09:27;;;;;;;23.35;19.48;;;28.00;95.40;;;;;;6340751;22;20006;-78
2022/08/16 12:11:53;;;;;;;22.52;19.55;;;27.90;95.20;;;;;;6359375;22;20010;-78
2022/08/16 12:14:22;;;;;;;18.02;15.18;;;27.90;95.40;;;;;;6345240;22;20034;-80
2022/08/16 12:16:47;;;;;;;23.17;18.77;;;27.80;96.00;;;;;;6339381;22;20002;-79
2022/08/16 12:19:13;;;;;;;20.45;18.40;;;27.90;95.60;;;;;;6337453;22;20066;-79
2022/08/16 12:21:40;;;;;;;24.60;18.75;;;27.90;95.70;;;;;;6338562;22;20033;-79
2022/08/16 12:24:06;;;;;;;20.88;18.40;;;28.00;95.40;;;;;;6338322;22;20021;-79
2022/08/16 12:26:33;;;;;;;20.92;18.00;;;28.00;95.50;;;;;;6336845;22;20561;-79
2022/08/16 12:29:00;;;;;;;19.98;16.40;;;28.00;94.50;;;;;;6337725;22;20030;-79